sensor_id;sensor_type;location;lat;lon;timestamp;pressure;altitude;pressure_sealevel;temperature;humidity
33280;BME280;20403;43.114;12.434;2023-08-08T00:00:25;99195.00;;;15.87;100.00
33280;BME280;20403;43.114;12.434;2023-08-08T00:02:51;99196.03;;;15.81;100.00
33280;BME280;20403;43.114;12.434;2023-08-08T00:05:16;99198.41;;;15.82;100.00
33280;BME280;20403;43.114;12.434;2023-08-08T00:07:41;99189.75;;;15.87;100.00
33280;BME280;20403;43.114;12.434;2023-08-08T00:10:07;99191.63;;;15.91;100.00
33280;BME280;20403;43.114;12.434;2023-08-08T00:12:33;99189.00;;;15.91;100.00
33280;BME280;20403;43.114;12.434;2023-08-08T00:14:59;99188.72;;;15.88;100.00
33280;BME280;20403;43.114;12.434;2023-08-08T00:17:24;99184.72;;;15.80;100.00
33280;BME280;20403;43.114;12.434;2023-08-08T00:19:50;99186.56;;;15.80;100.00
33280;BME280;20403;43.114;12.434;2023-08-08T00:22:15;99188.19;;;15.86;100.00
33280;BME280;20403;43.114;12.434;2023-08-08T00:24:41;99189.28;;;15.95;100.00
33280;BME280;20403;43.114;12.434;2023-08-08T00:27:06;99182.72;;;15.98;100.00
33280;BME280;20403;43.114;12.434;2023-08-08T00:29:32;99190.66;;;16.08;100.00
33280;BME280;20403;43.114;12.434;2023-08-08T00:31:57;99184.91;;;16.11;100.00
33280;BME280;20403;43.114;12.434;2023-08-08T00:34:22;99181.22;;;16.12;100.00
33280;BME280;20403;43.114;12.434;2023-08-08T00:36:48;99189.41;;;16.15;100.00
33280;BME280;20403;43.114;12.434;2023-08-08T00:39:13;99192.25;;;16.09;100.00
33280;BME280;20403;43.114;12.434;2023-08-08T00:41:39;99193.28;;;16.08;100.00
33280;BME280;20403;43.114;12.434;2023-08-08T00:44:04;99191.94;;;16.00;100.00
33280;BME280;20403;43.114;12.434;2023-08-08T00:46:29;99192.69;;;15.95;100.00
33280;BME280;20403;43.114;12.434;2023-08-08T00:48:55;99185.81;;;15.89;100.00
33280;BME280;20403;43.114;12.434;2023-08-08T00:51:21;99189.25;;;15.90;100.00
33280;BME280;20403;43.114;12.434;2023-08-08T00:53:47;99194.53;;;15.90;100.00
33280;BME280;20403;43.114;12.434;2023-08-08T00:56:14;99189.19;;;15.80;100.00
33280;BME280;20403;43.114;12.434;2023-08-08T00:58:42;99190.25;;;15.79;100.00
33280;BME280;20403;43.114;12.434;2023-08-08T01:01:11;99190.47;;;15.77;100.00
33280;BME280;20403;43.114;12.434;2023-08-08T01:03:36;99196.81;;;15.76;100.00
33280;BME280;20403;43.114;12.434;2023-08-08T01:06:08;99199.94;;;15.78;100.00
33280;BME280;20403;43.114;12.434;2023-08-08T01:08:41;99200.25;;;15.82;100.00
33280;BME280;20403;43.114;12.434;2023-08-08T01:11:08;99198.88;;;15.74;100.00
33280;BME280;20403;43.114;12.434;2023-08-08T01:13:34;99199.84;;;15.68;100.00
33280;BME280;20403;43.114;12.434;2023-08-08T01:16:03;99192.75;;;15.68;100.00
33280;BME280;20403;43.114;12.434;2023-08-08T01:18:31;99190.09;;;15.63;100.00
33280;BME280;20403;43.114;12.434;2023-08-08T01:20:58;99188.94;;;15.49;100.00
33280;BME280;20403;43.114;12.434;2023-08-08T01:23:52;99191.84;;;15.20;100.00
33280;BME280;20403;43.114;12.434;2023-08-08T01:26:20;99193.41;;;15.16;100.00
33280;BME280;20403;43.114;12.434;2023-08-08T01:28:45;99196.63;;;15.23;100.00
33280;BME280;20403;43.114;12.434;2023-08-08T01:31:11;99198.78;;;15.31;100.00
33280;BME280;20403;43.114;12.434;2023-08-08T01:33:37;99191.25;;;15.40;100.00
33280;BME280;20403;43.114;12.434;2023-08-08T01:36:10;99189.19;;;15.47;100.00
33280;BME280;20403;43.114;12.434;2023-08-08T01:38:43;99188.66;;;15.45;100.00
33280;BME280;20403;43.114;12.434;2023-08-08T01:41:10;99188.78;;;15.28;100.00
33280;BME280;20403;43.114;12.434;2023-08-08T01:43:38;99181.22;;;15.05;100.00
33280;BME280;20403;43.114;12.434;2023-08-08T01:46:05;99181.38;;;14.93;100.00
33280;BME280;20403;43.114;12.434;2023-08-08T01:48:30;99200.78;;;14.92;100.00
33280;BME280;20403;43.114;12.434;2023-08-08T01:50:56;99194.03;;;15.01;100.00
33280;BME280;20403;43.114;12.434;2023-08-08T01:53:21;99199.69;;;15.15;100.00
33280;BME280;20403;43.114;12.434;2023-08-08T01:55:47;99190.66;;;15.06;100.00
33280;BME280;20403;43.114;12.434;2023-08-08T01:58:12;99183.44;;;15.18;100.00
33280;BME280;20403;43.114;12.434;2023-08-08T02:00:38;99187.84;;;15.12;100.00
33280;BME280;20403;43.114;12.434;2023-08-08T02:03:06;99185.97;;;15.08;100.00
33280;BME280;20403;43.114;12.434;2023-08-08T02:05:31;99205.47;;;14.90;100.00
33280;BME280;20403;43.114;12.434;2023-08-08T02:07:57;99214.03;;;15.02;100.00
33280;BME280;20403;43.114;12.434;2023-08-08T02:10:22;99207.28;;;15.11;100.00
33280;BME280;20403;43.114;12.434;2023-08-08T02:12:48;99212.34;;;15.18;100.00
33280;BME280;20403;43.114;12.434;2023-08-08T02:15:13;99216.03;;;15.22;100.00
33280;BME280;20403;43.114;12.434;2023-08-08T02:17:38;99227.09;;;15.24;100.00
33280;BME280;20403;43.114;12.434;2023-08-08T02:20:05;99227.63;;;15.26;100.00
33280;BME280;20403;43.114;12.434;2023-08-08T02:22:32;99213.31;;;15.12;100.00
33280;BME280;20403;43.114;12.434;2023-08-08T02:24:57;99216.16;;;15.05;100.00
33280;BME280;20403;43.114;12.434;2023-08-08T02:27:22;99213.06;;;14.86;100.00
33280;BME280;20403;43.114;12.434;2023-08-08T02:29:48;99219.91;;;14.87;100.00
33280;BME280;20403;43.114;12.434;2023-08-08T02:32:13;99219.47;;;14.96;100.00
33280;BME280;20403;43.114;12.434;2023-08-08T02:34:39;99215.19;;;14.89;100.00
33280;BME280;20403;43.114;12.434;2023-08-08T02:37:04;99214.84;;;14.81;100.00
33280;BME280;20403;43.114;12.434;2023-08-08T02:39:30;99211.56;;;14.90;100.00
33280;BME280;20403;43.114;12.434;2023-08-08T02:41:55;99211.44;;;14.80;100.00
33280;BME280;20403;43.114;12.434;2023-08-08T02:44:21;99212.47;;;14.79;100.00
33280;BME280;20403;43.114;12.434;2023-08-08T02:46:47;99214.41;;;14.89;100.00
33280;BME280;20403;43.114;12.434;2023-08-08T02:49:13;99212.34;;;14.91;100.00
33280;BME280;20403;43.114;12.434;2023-08-08T02:51:38;99222.88;;;14.96;100.00
33280;BME280;20403;43.114;12.434;2023-08-08T02:54:04;99220.66;;;15.10;100.00
33280;BME280;20403;43.114;12.434;2023-08-08T02:56:30;99212.28;;;15.13;100.00
33280;BME280;20403;43.114;12.434;2023-08-08T02:58:55;99206.47;;;15.11;100.00
33280;BME280;20403;43.114;12.434;2023-08-08T03:01:21;99209.81;;;15.01;100.00
33280;BME280;20403;43.114;12.434;2023-08-08T03:03:47;99216.38;;;15.04;100.00
33280;BME280;20403;43.114;12.434;2023-08-08T03:06:12;99217.88;;;14.95;100.00
33280;BME280;20403;43.114;12.434;2023-08-08T03:08:38;99221.84;;;14.97;100.00
33280;BME280;20403;43.114;12.434;2023-08-08T03:11:03;99207.28;;;15.11;100.00
33280;BME280;20403;43.114;12.434;2023-08-08T03:13:29;99203.59;;;15.12;100.00
33280;BME280;20403;43.114;12.434;2023-08-08T03:15:54;99212.19;;;15.03;100.00
33280;BME280;20403;43.114;12.434;2023-08-08T03:18:22;99208.69;;;14.97;100.00
33280;BME280;20403;43.114;12.434;2023-08-08T03:20:48;99207.88;;;14.91;100.00
33280;BME280;20403;43.114;12.434;2023-08-08T03:23:13;99203.41;;;14.92;100.00
33280;BME280;20403;43.114;12.434;2023-08-08T03:25:39;99211.03;;;14.94;100.00
33280;BME280;20403;43.114;12.434;2023-08-08T03:28:04;99207.91;;;14.97;100.00
33280;BME280;20403;43.114;12.434;2023-08-08T03:30:30;99209.19;;;14.94;100.00
33280;BME280;20403;43.114;12.434;2023-08-08T03:32:55;99214.66;;;14.87;100.00
33280;BME280;20403;43.114;12.434;2023-08-08T03:35:21;99211.66;;;14.79;100.00
33280;BME280;20403;43.114;12.434;2023-08-08T03:37:46;99200.88;;;14.75;100.00
33280;BME280;20403;43.114;12.434;2023-08-08T03:40:12;99212.66;;;14.73;100.00
33280;BME280;20403;43.114;12.434;2023-08-08T03:42:39;99219.75;;;14.72;100.00
33280;BME280;20403;43.114;12.434;2023-08-08T03:45:05;99218.47;;;14.75;100.00
33280;BME280;20403;43.114;12.434;2023-08-08T03:47:31;99218.09;;;14.66;100.00
33280;BME280;20403;43.114;12.434;2023-08-08T03:49:56;99226.94;;;14.60;100.00
33280;BME280;20403;43.114;12.434;2023-08-08T03:52:23;99234.03;;;14.59;100.00
33280;BME280;20403;43.114;12.434;2023-08-08T03:54:48;99228.72;;;14.54;100.00
33280;BME280;20403;43.114;12.434;2023-08-08T03:57:14;99227.94;;;14.37;100.00
33280;BME280;20403;43.114;12.434;2023-08-08T03:59:39;99236.31;;;14.34;100.00
33280;BME280;20403;43.114;12.434;2023-08-08T04:02:05;99235.19;;;14.29;100.00
33280;BME280;20403;43.114;12.434;2023-08-08T04:04:30;99235.50;;;14.33;100.00
33280;BME280;20403;43.114;12.434;2023-08-08T04:06:57;99237.97;;;14.40;100.00
33280;BME280;20403;43.114;12.434;2023-08-08T04:09:23;99244.16;;;14.34;100.00
33280;BME280;20403;43.114;12.434;2023-08-08T04:11:48;99240.69;;;14.28;100.00
33280;BME280;20403;43.114;12.434;2023-08-08T04:14:13;99236.66;;;14.20;100.00
33280;BME280;20403;43.114;12.434;2023-08-08T04:16:39;99240.78;;;14.16;100.00
33280;BME280;20403;43.114;12.434;2023-08-08T04:19:05;99236.81;;;14.14;100.00
33280;BME280;20403;43.114;12.434;2023-08-08T04:21:30;99245.97;;;14.11;100.00
33280;BME280;20403;43.114;12.434;2023-08-08T04:23:58;99248.03;;;14.09;100.00
33280;BME280;20403;43.114;12.434;2023-08-08T04:26:24;99251.53;;;14.15;100.00
33280;BME280;20403;43.114;12.434;2023-08-08T04:28:49;99253.25;;;14.26;100.00
33280;BME280;20403;43.114;12.434;2023-08-08T04:31:14;99251.72;;;14.30;100.00
33280;BME280;20403;43.114;12.434;2023-08-08T04:33:40;99256.25;;;14.35;100.00
33280;BME280;20403;43.114;12.434;2023-08-08T04:36:05;99256.78;;;14.37;100.00
33280;BME280;20403;43.114;12.434;2023-08-08T04:38:31;99256.97;;;14.30;100.00
33280;BME280;20403;43.114;12.434;2023-08-08T04:40:56;99260.16;;;14.32;100.00
33280;BME280;20403;43.114;12.434;2023-08-08T04:43:22;99266.00;;;14.39;100.00
33280;BME280;20403;43.114;12.434;2023-08-08T04:45:47;99267.66;;;14.45;100.00
33280;BME280;20403;43.114;12.434;2023-08-08T04:48:13;99266.44;;;14.53;100.00
33280;BME280;20403;43.114;12.434;2023-08-08T04:50:38;99269.97;;;14.59;100.00
33280;BME280;20403;43.114;12.434;2023-08-08T04:53:04;99273.72;;;14.63;100.00
33280;BME280;20403;43.114;12.434;2023-08-08T04:55:29;99278.47;;;14.66;100.00
33280;BME280;20403;43.114;12.434;2023-08-08T04:57:55;99281.09;;;14.66;100.00
33280;BME280;20403;43.114;12.434;2023-08-08T05:00:20;99280.06;;;14.89;100.00
33280;BME280;20403;43.114;12.434;2023-08-08T05:02:46;99287.88;;;15.11;100.00
33280;BME280;20403;43.114;12.434;2023-08-08T05:05:11;99286.72;;;15.24;100.00
33280;BME280;20403;43.114;12.434;2023-08-08T05:07:37;99285.56;;;15.37;100.00
33280;BME280;20403;43.114;12.434;2023-08-08T05:10:03;99289.38;;;15.51;100.00
33280;BME280;20403;43.114;12.434;2023-08-08T05:12:29;99284.16;;;15.56;100.00
33280;BME280;20403;43.114;12.434;2023-08-08T05:14:54;99292.72;;;15.46;100.00
33280;BME280;20403;43.114;12.434;2023-08-08T05:17:20;99296.94;;;15.47;100.00
33280;BME280;20403;43.114;12.434;2023-08-08T05:19:45;99296.56;;;15.66;100.00
33280;BME280;20403;43.114;12.434;2023-08-08T05:22:11;99298.53;;;15.75;100.00
33280;BME280;20403;43.114;12.434;2023-08-08T05:24:36;99289.59;;;15.77;100.00
33280;BME280;20403;43.114;12.434;2023-08-08T05:27:02;99295.69;;;15.82;100.00
33280;BME280;20403;43.114;12.434;2023-08-08T05:29:29;99292.41;;;15.97;100.00
33280;BME280;20403;43.114;12.434;2023-08-08T05:31:55;99289.25;;;16.00;100.00
33280;BME280;20403;43.114;12.434;2023-08-08T05:34:20;99296.97;;;16.12;100.00
33280;BME280;20403;43.114;12.434;2023-08-08T05:36:45;99301.50;;;16.22;100.00
33280;BME280;20403;43.114;12.434;2023-08-08T05:39:11;99302.59;;;16.31;100.00
33280;BME280;20403;43.114;12.434;2023-08-08T05:41:36;99295.06;;;16.45;100.00
33280;BME280;20403;43.114;12.434;2023-08-08T05:44:02;99289.00;;;16.44;100.00
33280;BME280;20403;43.114;12.434;2023-08-08T05:46:27;99301.16;;;16.50;100.00
33280;BME280;20403;43.114;12.434;2023-08-08T05:48:53;99299.13;;;16.68;100.00
33280;BME280;20403;43.114;12.434;2023-08-08T05:51:18;99295.00;;;16.82;100.00
33280;BME280;20403;43.114;12.434;2023-08-08T05:53:43;99297.69;;;16.97;100.00
33280;BME280;20403;43.114;12.434;2023-08-08T05:56:09;99298.25;;;17.10;100.00
33280;BME280;20403;43.114;12.434;2023-08-08T05:58:34;99293.56;;;17.22;100.00
33280;BME280;20403;43.114;12.434;2023-08-08T06:01:02;99292.25;;;17.35;100.00
33280;BME280;20403;43.114;12.434;2023-08-08T06:03:31;99309.41;;;17.58;100.00
33280;BME280;20403;43.114;12.434;2023-08-08T06:05:57;99310.22;;;17.69;100.00
33280;BME280;20403;43.114;12.434;2023-08-08T06:08:22;99318.13;;;17.79;100.00
33280;BME280;20403;43.114;12.434;2023-08-08T06:10:48;99313.94;;;17.88;100.00
33280;BME280;20403;43.114;12.434;2023-08-08T06:13:13;99328.19;;;17.92;100.00
33280;BME280;20403;43.114;12.434;2023-08-08T06:15:39;99314.47;;;18.00;100.00
33280;BME280;20403;43.114;12.434;2023-08-08T06:18:05;99318.97;;;18.10;100.00
33280;BME280;20403;43.114;12.434;2023-08-08T06:20:30;99316.81;;;18.22;100.00
33280;BME280;20403;43.114;12.434;2023-08-08T06:22:56;99318.38;;;18.39;100.00
33280;BME280;20403;43.114;12.434;2023-08-08T06:25:21;99320.72;;;18.51;100.00
33280;BME280;20403;43.114;12.434;2023-08-08T06:27:47;99314.63;;;18.60;100.00
33280;BME280;20403;43.114;12.434;2023-08-08T06:30:12;99310.66;;;18.68;100.00
33280;BME280;20403;43.114;12.434;2023-08-08T06:32:38;99316.72;;;18.79;100.00
33280;BME280;20403;43.114;12.434;2023-08-08T06:35:03;99313.47;;;18.92;100.00
33280;BME280;20403;43.114;12.434;2023-08-08T06:37:29;99316.53;;;19.15;100.00
33280;BME280;20403;43.114;12.434;2023-08-08T06:39:54;99318.03;;;19.31;100.00
33280;BME280;20403;43.114;12.434;2023-08-08T06:42:20;99321.13;;;19.48;100.00
33280;BME280;20403;43.114;12.434;2023-08-08T06:44:46;99311.50;;;19.63;100.00
33280;BME280;20403;43.114;12.434;2023-08-08T06:47:11;99314.28;;;19.82;100.00
33280;BME280;20403;43.114;12.434;2023-08-08T06:49:40;99314.38;;;20.01;100.00
33280;BME280;20403;43.114;12.434;2023-08-08T06:52:06;99308.19;;;20.15;100.00
33280;BME280;20403;43.114;12.434;2023-08-08T06:54:32;99310.31;;;20.38;100.00
33280;BME280;20403;43.114;12.434;2023-08-08T06:56:57;99312.81;;;20.53;100.00
33280;BME280;20403;43.114;12.434;2023-08-08T06:59:23;99313.47;;;20.69;100.00
33280;BME280;20403;43.114;12.434;2023-08-08T07:01:50;99301.38;;;20.82;100.00
33280;BME280;20403;43.114;12.434;2023-08-08T07:04:16;99297.75;;;20.96;100.00
33280;BME280;20403;43.114;12.434;2023-08-08T07:06:43;99294.03;;;21.16;100.00
33280;BME280;20403;43.114;12.434;2023-08-08T07:09:08;99301.56;;;21.28;100.00
33280;BME280;20403;43.114;12.434;2023-08-08T07:11:36;99294.78;;;21.41;100.00
33280;BME280;20403;43.114;12.434;2023-08-08T07:14:02;99302.50;;;21.56;100.00
33280;BME280;20403;43.114;12.434;2023-08-08T07:16:27;99289.75;;;21.58;100.00
33280;BME280;20403;43.114;12.434;2023-08-08T07:18:53;99287.81;;;21.78;100.00
33280;BME280;20403;43.114;12.434;2023-08-08T07:21:18;99294.03;;;21.87;100.00
33280;BME280;20403;43.114;12.434;2023-08-08T07:23:43;99285.88;;;21.84;100.00
33280;BME280;20403;43.114;12.434;2023-08-08T07:26:09;99289.25;;;22.03;100.00
33280;BME280;20403;43.114;12.434;2023-08-08T07:28:35;99291.44;;;22.15;100.00
33280;BME280;20403;43.114;12.434;2023-08-08T07:31:01;99291.63;;;22.05;100.00
33280;BME280;20403;43.114;12.434;2023-08-08T07:33:26;99282.06;;;22.03;100.00
33280;BME280;20403;43.114;12.434;2023-08-08T07:35:52;99292.22;;;22.15;100.00
33280;BME280;20403;43.114;12.434;2023-08-08T07:38:17;99284.91;;;22.40;100.00
33280;BME280;20403;43.114;12.434;2023-08-08T07:40:43;99285.69;;;22.68;100.00
33280;BME280;20403;43.114;12.434;2023-08-08T07:43:08;99292.34;;;22.79;100.00
33280;BME280;20403;43.114;12.434;2023-08-08T07:45:33;99288.00;;;22.97;100.00
33280;BME280;20403;43.114;12.434;2023-08-08T07:47:59;99282.72;;;23.20;100.00
33280;BME280;20403;43.114;12.434;2023-08-08T07:50:24;99285.25;;;23.39;100.00
33280;BME280;20403;43.114;12.434;2023-08-08T07:52:50;99285.25;;;23.39;100.00
33280;BME280;20403;43.114;12.434;2023-08-08T07:55:15;99285.78;;;23.49;100.00
33280;BME280;20403;43.114;12.434;2023-08-08T07:57:41;99285.19;;;23.75;100.00
33280;BME280;20403;43.114;12.434;2023-08-08T08:00:07;99290.50;;;23.98;100.00
33280;BME280;20403;43.114;12.434;2023-08-08T08:02:44;99295.44;;;24.13;98.88
33280;BME280;20403;43.114;12.434;2023-08-08T08:05:10;99293.00;;;24.34;87.01
33280;BME280;20403;43.114;12.434;2023-08-08T08:07:36;99292.34;;;24.28;81.66
33280;BME280;20403;43.114;12.434;2023-08-08T08:10:07;99295.19;;;24.32;80.98
33280;BME280;20403;43.114;12.434;2023-08-08T08:12:34;99290.53;;;24.46;78.42
33280;BME280;20403;43.114;12.434;2023-08-08T08:14:59;99297.19;;;24.58;73.40
33280;BME280;20403;43.114;12.434;2023-08-08T08:17:25;99293.44;;;24.67;76.82
33280;BME280;20403;43.114;12.434;2023-08-08T08:19:51;99293.28;;;24.64;68.95
33280;BME280;20403;43.114;12.434;2023-08-08T08:22:17;99290.28;;;24.65;72.80
33280;BME280;20403;43.114;12.434;2023-08-08T08:24:42;99292.97;;;24.74;73.20
33280;BME280;20403;43.114;12.434;2023-08-08T08:27:08;99291.91;;;24.84;78.01
33280;BME280;20403;43.114;12.434;2023-08-08T08:29:33;99286.91;;;24.91;80.82
33280;BME280;20403;43.114;12.434;2023-08-08T08:31:59;99298.03;;;24.84;72.56
33280;BME280;20403;43.114;12.434;2023-08-08T08:34:24;99300.81;;;24.79;69.39
33280;BME280;20403;43.114;12.434;2023-08-08T08:36:50;99295.03;;;24.86;66.88
33280;BME280;20403;43.114;12.434;2023-08-08T08:39:15;99294.91;;;25.00;64.51
33280;BME280;20403;43.114;12.434;2023-08-08T08:41:41;99294.44;;;25.15;64.56
33280;BME280;20403;43.114;12.434;2023-08-08T08:44:06;99299.50;;;25.25;63.16
33280;BME280;20403;43.114;12.434;2023-08-08T08:46:35;99303.09;;;25.55;61.89
33280;BME280;20403;43.114;12.434;2023-08-08T08:49:02;99307.00;;;25.93;62.77
33280;BME280;20403;43.114;12.434;2023-08-08T08:51:30;99301.63;;;25.84;58.83
33280;BME280;20403;43.114;12.434;2023-08-08T08:53:57;99301.47;;;25.98;58.31
33280;BME280;20403;43.114;12.434;2023-08-08T08:56:23;99291.63;;;26.28;59.92
33280;BME280;20403;43.114;12.434;2023-08-08T08:58:49;99291.97;;;26.56;60.05
33280;BME280;20403;43.114;12.434;2023-08-08T09:01:15;99294.03;;;26.51;60.98
33280;BME280;20403;43.114;12.434;2023-08-08T09:03:41;99294.19;;;26.46;63.34
33280;BME280;20403;43.114;12.434;2023-08-08T09:06:08;99292.91;;;26.52;56.70
33280;BME280;20403;43.114;12.434;2023-08-08T09:08:34;99290.41;;;26.85;62.42
33280;BME280;20403;43.114;12.434;2023-08-08T09:10:59;99290.13;;;26.99;57.41
33280;BME280;20403;43.114;12.434;2023-08-08T09:13:25;99283.72;;;26.91;53.04
33280;BME280;20403;43.114;12.434;2023-08-08T09:15:52;99287.97;;;26.92;49.97
33280;BME280;20403;43.114;12.434;2023-08-08T09:18:18;99286.66;;;26.98;47.81
33280;BME280;20403;43.114;12.434;2023-08-08T09:20:50;99284.06;;;27.32;46.69
33280;BME280;20403;43.114;12.434;2023-08-08T09:23:16;99286.94;;;27.48;47.19
33280;BME280;20403;43.114;12.434;2023-08-08T09:25:41;99281.84;;;27.67;48.92
33280;BME280;20403;43.114;12.434;2023-08-08T09:28:07;99282.66;;;27.80;40.92
33280;BME280;20403;43.114;12.434;2023-08-08T09:30:32;99279.72;;;27.73;42.64
33280;BME280;20403;43.114;12.434;2023-08-08T09:32:59;99275.53;;;27.51;38.05
33280;BME280;20403;43.114;12.434;2023-08-08T09:35:25;99279.38;;;27.62;43.64
33280;BME280;20403;43.114;12.434;2023-08-08T09:37:53;99279.53;;;27.78;42.99
33280;BME280;20403;43.114;12.434;2023-08-08T09:40:19;99286.28;;;27.96;39.92
33280;BME280;20403;43.114;12.434;2023-08-08T09:42:46;99278.38;;;28.24;41.94
33280;BME280;20403;43.114;12.434;2023-08-08T09:45:12;99279.28;;;28.28;37.27
33280;BME280;20403;43.114;12.434;2023-08-08T09:47:38;99272.88;;;28.45;38.31
33280;BME280;20403;43.114;12.434;2023-08-08T09:50:04;99280.50;;;28.56;38.61
33280;BME280;20403;43.114;12.434;2023-08-08T09:52:30;99279.03;;;28.58;37.29
33280;BME280;20403;43.114;12.434;2023-08-08T09:54:56;99278.91;;;28.67;36.45
33280;BME280;20403;43.114;12.434;2023-08-08T09:57:23;99279.72;;;28.55;37.67
33280;BME280;20403;43.114;12.434;2023-08-08T09:59:49;99276.50;;;28.49;35.95
33280;BME280;20403;43.114;12.434;2023-08-08T10:02:16;99282.41;;;28.55;38.48
33280;BME280;20403;43.114;12.434;2023-08-08T10:04:42;99278.56;;;28.93;37.20
33280;BME280;20403;43.114;12.434;2023-08-08T10:07:08;99283.66;;;29.10;34.46
33280;BME280;20403;43.114;12.434;2023-08-08T10:09:33;99276.81;;;29.13;33.49
33280;BME280;20403;43.114;12.434;2023-08-08T10:11:59;99276.44;;;29.27;34.92
33280;BME280;20403;43.114;12.434;2023-08-08T10:14:32;99272.25;;;29.42;31.66
33280;BME280;20403;43.114;12.434;2023-08-08T10:17:02;99273.16;;;29.33;32.41
33280;BME280;20403;43.114;12.434;2023-08-08T10:19:28;99274.19;;;29.29;32.73
33280;BME280;20403;43.114;12.434;2023-08-08T10:22:03;99266.25;;;29.32;30.38
33280;BME280;20403;43.114;12.434;2023-08-08T10:24:36;99274.09;;;29.25;29.75
33280;BME280;20403;43.114;12.434;2023-08-08T10:27:03;99279.47;;;29.53;32.97
33280;BME280;20403;43.114;12.434;2023-08-08T10:29:31;99269.53;;;29.70;30.74
33280;BME280;20403;43.114;12.434;2023-08-08T10:34:36;99259.47;;;30.14;29.66
33280;BME280;20403;43.114;12.434;2023-08-08T10:37:04;99265.31;;;30.32;27.48
33280;BME280;20403;43.114;12.434;2023-08-08T10:39:30;99257.22;;;30.01;27.70
33280;BME280;20403;43.114;12.434;2023-08-08T10:42:01;99257.81;;;29.78;29.17
33280;BME280;20403;43.114;12.434;2023-08-08T10:44:28;99256.97;;;29.74;29.55
33280;BME280;20403;43.114;12.434;2023-08-08T10:46:53;99262.09;;;29.95;29.74
33280;BME280;20403;43.114;12.434;2023-08-08T10:49:20;99255.81;;;30.23;27.84
33280;BME280;20403;43.114;12.434;2023-08-08T10:51:48;99256.63;;;30.07;28.25
33280;BME280;20403;43.114;12.434;2023-08-08T10:56:39;99250.03;;;30.36;30.67
33280;BME280;20403;43.114;12.434;2023-08-08T10:59:18;99247.38;;;30.75;29.42
33280;BME280;20403;43.114;12.434;2023-08-08T11:01:49;99252.38;;;31.12;29.22
33280;BME280;20403;43.114;12.434;2023-08-08T11:04:22;99246.81;;;31.44;29.37
33280;BME280;20403;43.114;12.434;2023-08-08T11:06:52;99251.81;;;31.65;27.99
33280;BME280;20403;43.114;12.434;2023-08-08T11:09:19;99248.75;;;31.67;27.49
33280;BME280;20403;43.114;12.434;2023-08-08T11:11:45;99249.53;;;31.90;28.30
33280;BME280;20403;43.114;12.434;2023-08-08T11:14:18;99245.88;;;31.79;28.18
33280;BME280;20403;43.114;12.434;2023-08-08T11:16:46;99249.41;;;31.60;28.09
33280;BME280;20403;43.114;12.434;2023-08-08T11:19:12;99243.59;;;31.81;26.59
33280;BME280;20403;43.114;12.434;2023-08-08T11:21:41;99240.47;;;31.79;25.56
33280;BME280;20403;43.114;12.434;2023-08-08T11:24:07;99240.38;;;31.72;26.30
33280;BME280;20403;43.114;12.434;2023-08-08T11:26:34;99244.84;;;31.87;26.73
33280;BME280;20403;43.114;12.434;2023-08-08T11:29:00;99239.16;;;31.92;27.52
33280;BME280;20403;43.114;12.434;2023-08-08T11:31:27;99238.38;;;31.92;27.29
33280;BME280;20403;43.114;12.434;2023-08-08T11:33:54;99237.22;;;31.93;29.17
33280;BME280;20403;43.114;12.434;2023-08-08T11:36:20;99232.91;;;32.11;26.81
33280;BME280;20403;43.114;12.434;2023-08-08T11:38:46;99225.41;;;32.24;26.13
33280;BME280;20403;43.114;12.434;2023-08-08T11:41:13;99231.81;;;32.16;24.24
33280;BME280;20403;43.114;12.434;2023-08-08T11:43:40;99230.19;;;31.85;22.33
33280;BME280;20403;43.114;12.434;2023-08-08T11:46:11;99237.63;;;31.68;25.81
33280;BME280;20403;43.114;12.434;2023-08-08T11:48:37;99229.88;;;31.90;24.28
33280;BME280;20403;43.114;12.434;2023-08-08T11:51:04;99224.38;;;31.82;22.98
33280;BME280;20403;43.114;12.434;2023-08-08T11:53:30;99225.03;;;31.99;25.35
33280;BME280;20403;43.114;12.434;2023-08-08T11:55:56;99229.13;;;32.16;26.09
33280;BME280;20403;43.114;12.434;2023-08-08T11:58:24;99221.78;;;32.43;24.88
33280;BME280;20403;43.114;12.434;2023-08-08T12:00:50;99220.34;;;32.49;25.50
33280;BME280;20403;43.114;12.434;2023-08-08T12:03:18;99212.38;;;32.56;26.66
33280;BME280;20403;43.114;12.434;2023-08-08T12:05:46;99216.34;;;32.66;23.39
33280;BME280;20403;43.114;12.434;2023-08-08T12:08:12;99210.56;;;32.68;28.48
33280;BME280;20403;43.114;12.434;2023-08-08T12:10:38;99213.66;;;32.70;25.02
33280;BME280;20403;43.114;12.434;2023-08-08T12:13:03;99215.69;;;32.76;25.87
33280;BME280;20403;43.114;12.434;2023-08-08T12:15:32;99211.19;;;32.88;25.93
33280;BME280;20403;43.114;12.434;2023-08-08T12:17:59;99210.84;;;32.93;26.82
33280;BME280;20403;43.114;12.434;2023-08-08T12:20:27;99213.34;;;33.05;25.52
33280;BME280;20403;43.114;12.434;2023-08-08T12:22:54;99215.41;;;33.19;23.59
33280;BME280;20403;43.114;12.434;2023-08-08T12:25:19;99207.75;;;32.91;26.06
33280;BME280;20403;43.114;12.434;2023-08-08T12:27:45;99208.44;;;32.84;26.93
33280;BME280;20403;43.114;12.434;2023-08-08T12:30:10;99204.03;;;32.69;25.15
33280;BME280;20403;43.114;12.434;2023-08-08T12:32:36;99198.00;;;32.82;25.44
33280;BME280;20403;43.114;12.434;2023-08-08T12:35:01;99201.59;;;32.60;22.68
33280;BME280;20403;43.114;12.434;2023-08-08T12:37:27;99194.97;;;32.54;24.14
33280;BME280;20403;43.114;12.434;2023-08-08T12:39:52;99193.44;;;32.86;26.64
33280;BME280;20403;43.114;12.434;2023-08-08T12:42:18;99193.16;;;32.65;24.90